Time;durP1;ratioP1;P1;durP2;ratioP2;P2;SDS_P1;SDS_P2;PMS_P1;PMS_P2;Temp;Humidity;BMP_temperature;BMP_pressure;BME280_temperature;BME280_humidity;BME280_pressure;Samples;Min_cycle;Max_cycle;Signal;HPM_P1;HPM_P2
2022/03/21 00:00:39;;;;;;;;;64.50;52.50;;;;;8.57;55.74;102504.88;5111741;27;50029;-69
2022/03/21 00:03:10;;;;;;;;;57.50;48.25;;;;;8.50;55.13;102492.28;5111543;27;50124;-69
2022/03/21 00:05:36;;;;;;;;;64.25;53.75;;;;;8.66;55.87;102531.56;5112663;27;49993;-69
2022/03/21 00:08:02;;;;;;;;;61.75;45.75;;;;;8.40;55.69;102490.84;5112628;27;49715;-70
2022/03/21 00:10:30;;;;;;;;;64.50;49.25;;;;;8.41;56.01;102496.97;5112390;27;49741;-70
2022/03/21 00:12:55;;;;;;;;;59.75;47.50;;;;;8.59;55.41;102532.06;5112941;27;49651;-70
2022/03/21 00:15:22;;;;;;;;;56.75;44.25;;;;;8.51;56.32;102538.56;5112633;27;49204;-70
2022/03/21 00:17:47;;;;;;;;;63.50;52.50;;;;;8.53;56.21;102539.56;5112589;27;49734;-69
2022/03/21 00:20:15;;;;;;;;;65.75;52.00;;;;;8.32;57.21;102510.41;5111650;27;49617;-69
2022/03/21 00:22:40;;;;;;;;;69.75;55.25;;;;;8.28;56.59;102504.06;5112750;27;49843;-69
2022/03/21 00:25:06;;;;;;;;;67.00;53.00;;;;;7.95;56.68;102450.72;5111985;27;49661;-69
2022/03/21 00:27:32;;;;;;;;;65.50;52.25;;;;;8.35;57.27;102520.16;5112434;27;49838;-69
2022/03/21 00:29:58;;;;;;;;;63.25;50.50;;;;;8.24;57.52;102503.81;5112575;27;49974;-70
2022/03/21 00:32:24;;;;;;;;;64.00;51.75;;;;;8.38;57.42;102533.41;5111217;27;49948;-70
2022/03/21 00:34:49;;;;;;;;;66.75;54.00;;;;;8.32;57.66;102537.47;5112270;27;50543;-70
2022/03/21 00:37:14;;;;;;;;;69.75;53.50;;;;;8.34;58.10;102529.69;5112420;27;49726;-70
2022/03/21 00:39:40;;;;;;;;;67.25;54.00;;;;;8.30;57.39;102532.97;5112219;27;50319;-70
2022/03/21 00:42:09;;;;;;;;;71.50;53.50;;;;;8.26;58.44;102525.72;5112465;27;50031;-69
2022/03/21 00:44:35;;;;;;;;;67.50;52.00;;;;;8.25;57.74;102524.84;5111932;27;51732;-70
2022/03/21 00:47:00;;;;;;;;;66.25;53.00;;;;;8.13;57.69;102513.66;5112110;27;49561;-69
2022/03/21 00:49:25;;;;;;;;;63.00;52.50;;;;;8.24;58.23;102522.13;5112309;27;49936;-71
2022/03/21 00:51:51;;;;;;;;;68.00;53.00;;;;;7.78;58.56;102455.75;5112392;27;50137;-70
2022/03/21 00:54:16;;;;;;;;;64.00;52.25;;;;;8.24;58.39;102528.25;5112059;27;50443;-69
2022/03/21 00:56:41;;;;;;;;;61.00;51.00;;;;;8.22;58.85;102529.00;5111808;27;49598;-70
2022/03/21 00:59:07;;;;;;;;;61.50;48.75;;;;;8.20;58.26;102523.69;5112115;27;49714;-70
2022/03/21 01:01:32;;;;;;;;;62.00;48.75;;;;;8.21;58.99;102517.63;5112143;27;49839;-71
2022/03/21 01:03:57;;;;;;;;;64.25;52.50;;;;;8.23;58.68;102518.63;5111674;27;50325;-69
2022/03/21 01:06:23;;;;;;;;;63.75;52.00;;;;;8.22;58.77;102513.31;5111852;27;49731;-70
2022/03/21 01:08:48;;;;;;;;;61.75;48.75;;;;;8.20;58.78;102522.75;5112005;27;49564;-69
2022/03/21 01:11:14;;;;;;;;;69.75;54.75;;;;;8.19;59.18;102534.03;5111938;27;49892;-69
2022/03/21 01:13:41;;;;;;;;;70.50;54.00;;;;;8.15;59.01;102530.34;5111872;27;50604;-69
2022/03/21 01:16:10;;;;;;;;;60.50;49.50;;;;;8.09;59.41;102529.06;5111923;27;49872;-69
2022/03/21 01:18:36;;;;;;;;;63.25;51.25;;;;;8.07;59.51;102533.31;5110414;27;49708;-70
2022/03/21 01:21:02;;;;;;;;;68.75;54.25;;;;;7.95;59.29;102504.72;5111803;27;49778;-69
2022/03/21 01:23:27;;;;;;;;;61.50;46.00;;;;;8.10;59.61;102536.09;5111504;27;49657;-69
2022/03/21 01:25:53;;;;;;;;;66.75;53.00;;;;;7.83;59.91;102489.22;5111623;27;49717;-69
2022/03/21 01:28:18;;;;;;;;;69.75;54.00;;;;;8.02;59.81;102531.34;5111674;27;49840;-69
2022/03/21 01:30:43;;;;;;;;;64.50;51.00;;;;;7.89;60.05;102509.59;5112445;27;49888;-69
2022/03/21 01:33:09;;;;;;;;;66.25;55.25;;;;;7.91;60.19;102521.03;5115357;27;51146;-70
2022/03/21 01:35:34;;;;;;;;;65.75;51.25;;;;;7.97;60.52;102529.25;5115353;27;49746;-69
2022/03/21 01:38:00;;;;;;;;;67.75;51.25;;;;;7.95;60.22;102531.78;5115105;27;49724;-69
2022/03/21 01:40:25;;;;;;;;;64.00;48.75;;;;;7.86;60.00;102520.78;5114943;27;49955;-69
2022/03/21 01:42:51;;;;;;;;;65.50;50.50;;;;;7.92;60.17;102529.00;5114921;27;49701;-69
2022/03/21 01:45:17;;;;;;;;;64.25;53.50;;;;;7.90;60.23;102527.97;5115120;27;49657;-69
2022/03/21 01:47:43;;;;;;;;;60.50;50.50;;;;;7.89;60.41;102538.34;5115261;27;49895;-69
2022/03/21 01:50:10;;;;;;;;;64.00;52.25;;;;;7.62;60.36;102478.38;5108576;27;50199;-68
2022/03/21 01:52:36;;;;;;;;;66.50;51.25;;;;;7.80;60.42;102517.78;5114929;27;50053;-70
2022/03/21 01:57:48;;;;;;;;;64.50;49.25;;;;;7.93;60.48;102540.34;5114604;27;49824;-70
2022/03/21 02:00:14;;;;;;;;;62.00;50.00;;;;;7.53;60.63;102466.47;5114970;27;49665;-70
2022/03/21 02:02:40;;;;;;;;;62.00;49.50;;;;;7.65;60.59;102493.34;5114683;27;50362;-69
2022/03/21 02:05:06;;;;;;;;;69.25;54.25;;;;;7.83;60.84;102517.09;5114878;27;49635;-69
2022/03/21 02:07:31;;;;;;;;;66.00;51.25;;;;;7.99;60.84;102531.13;5115019;27;49652;-70
2022/03/21 02:09:57;;;;;;;;;64.00;51.00;;;;;7.76;60.18;102492.28;5114653;27;49658;-69
2022/03/21 02:12:22;;;;;;;;;60.50;48.25;;;;;7.96;60.20;102520.50;5114496;27;49650;-69
2022/03/21 02:14:48;;;;;;;;;63.25;50.50;;;;;8.03;60.43;102527.91;5114413;27;49697;-68
2022/03/21 02:17:18;;;;;;;;;65.00;51.00;;;;;8.11;60.14;102544.06;5114475;27;49794;-68
2022/03/21 02:19:47;;;;;;;;;63.00;50.75;;;;;8.01;60.21;102521.69;5114845;27;49695;-69
2022/03/21 02:22:45;;;;;;;;;61.75;51.00;;;;;8.12;60.41;102526.66;5114496;27;49970;-68
2022/03/21 02:25:29;;;;;;;;;61.50;48.75;;;;;8.08;60.07;102525.56;5114194;27;49679;-68
2022/03/21 02:27:58;;;;;;;;;58.75;47.25;;;;;8.04;60.26;102524.47;5113281;27;49808;-69
2022/03/21 02:30:26;;;;;;;;;60.50;49.00;;;;;7.95;60.75;102512.56;5114522;27;49661;-68
2022/03/21 02:32:53;;;;;;;;;48.50;41.25;;;;;7.73;60.79;102499.94;5113894;27;50591;-69
2022/03/21 02:35:22;;;;;;;;;67.50;54.25;;;;;7.68;61.44;102493.53;5114239;27;49729;-69
2022/03/21 02:37:48;;;;;;;;;68.75;51.25;;;;;7.80;60.81;102509.03;5114363;27;49560;-69
2022/03/21 02:40:15;;;;;;;;;64.75;53.75;;;;;7.52;60.69;102465.56;5114385;27;49658;-69
2022/03/21 02:42:42;;;;;;;;;64.25;49.25;;;;;7.56;61.32;102480.63;5113026;27;50662;-69
2022/03/21 02:45:08;;;;;;;;;58.75;47.50;;;;;7.74;61.25;102513.09;5113971;27;50313;-69
2022/03/21 02:47:34;;;;;;;;;57.50;49.00;;;;;7.70;60.90;102507.59;5114050;27;49912;-69
2022/03/21 02:50:02;;;;;;;;;64.25;49.50;;;;;7.29;61.65;102435.44;5113964;27;49662;-69
2022/03/21 02:52:29;;;;;;;;;61.50;50.25;;;;;7.57;61.41;102494.59;5113732;27;50790;-69
2022/03/21 02:54:55;;;;;;;;;64.75;49.75;;;;;7.38;61.87;102469.06;5113645;27;49764;-69
2022/03/21 02:57:21;;;;;;;;;58.75;47.00;;;;;7.39;61.80;102463.91;5113959;27;49888;-69
2022/03/21 02:59:46;;;;;;;;;59.50;49.25;;;;;7.47;61.71;102482.69;5114099;27;49753;-69
2022/03/21 03:02:11;;;;;;;;;63.25;49.50;;;;;7.49;61.92;102498.44;5113577;27;50658;-69
2022/03/21 03:04:37;;;;;;;;;63.50;51.50;;;;;7.65;61.29;102519.50;5113651;27;49693;-69
2022/03/21 03:07:03;;;;;;;;;54.25;43.25;;;;;7.66;61.73;102518.69;5113685;27;49745;-69
2022/03/21 03:09:28;;;;;;;;;63.50;50.75;;;;;6.81;61.45;102368.06;5113747;27;49851;-69
2022/03/21 03:11:53;;;;;;;;;66.00;52.00;;;;;7.41;62.02;102498.88;5113469;27;51017;-69
2022/03/21 03:14:19;;;;;;;;;61.75;51.00;;;;;7.55;62.08;102504.06;5113645;27;49806;-69
2022/03/21 03:16:44;;;;;;;;;63.00;49.25;;;;;7.31;61.48;102469.50;5113626;27;50048;-69
2022/03/21 03:19:10;;;;;;;;;63.50;51.50;;;;;7.60;62.15;102520.91;5113790;27;49770;-68
2022/03/21 03:21:43;;;;;;;;;65.25;52.75;;;;;7.38;61.63;102483.03;5113590;27;50340;-68
2022/03/21 03:24:09;;;;;;;;;59.25;49.25;;;;;7.57;62.58;102518.13;5112049;27;49843;-68
2022/03/21 03:26:35;;;;;;;;;61.50;47.75;;;;;7.30;63.25;102484.25;5113175;27;49796;-68
2022/03/21 03:29:00;;;;;;;;;59.25;48.00;;;;;7.41;63.07;102514.56;5113514;27;49970;-68
2022/03/21 03:31:26;;;;;;;;;64.75;51.00;;;;;7.47;62.64;102517.56;5113202;27;50914;-68
2022/03/21 03:33:52;;;;;;;;;63.50;52.25;;;;;7.49;62.36;102519.34;5113516;27;49671;-68
2022/03/21 03:36:18;;;;;;;;;65.50;49.00;;;;;7.46;62.76;102520.09;5112256;27;49836;-69
2022/03/21 03:38:44;;;;;;;;;61.25;46.50;;;;;7.32;62.64;102498.31;5113652;27;49958;-68
2022/03/21 03:41:10;;;;;;;;;60.25;47.00;;;;;7.48;62.57;102523.69;5112735;27;51123;-68
2022/03/21 03:43:36;;;;;;;;;51.50;44.50;;;;;7.47;62.68;102532.34;5106280;27;49851;-68
2022/03/21 03:46:03;;;;;;;;;58.50;45.50;;;;;7.25;63.14;102513.53;5113181;27;49748;-68
2022/03/21 03:48:28;;;;;;;;;60.00;49.50;;;;;7.45;62.91;102532.25;5113537;27;49930;-68
2022/03/21 03:50:54;;;;;;;;;53.25;46.25;;;;;7.33;63.21;102515.78;5112724;27;50279;-68
2022/03/21 03:53:20;;;;;;;;;63.00;48.00;;;;;7.39;63.26;102520.50;5113056;27;49667;-68
2022/03/21 03:55:45;;;;;;;;;60.00;48.00;;;;;7.51;62.98;102531.69;5113011;27;50091;-68
2022/03/21 03:58:11;;;;;;;;;62.25;50.75;;;;;7.54;63.16;102533.63;5112863;27;49536;-68
2022/03/21 04:00:36;;;;;;;;;68.75;50.50;;;;;7.14;62.96;102463.22;5112679;27;50660;-69
2022/03/21 04:05:46;;;;;;;;;56.00;48.00;;;;;7.27;62.99;102473.63;5112789;27;49751;-68
2022/03/21 04:08:12;;;;;;;;;63.00;50.50;;;;;7.67;62.46;102544.00;5113059;27;50291;-68
2022/03/21 04:10:38;;;;;;;;;57.25;46.00;;;;;7.69;62.31;102543.28;5112280;27;49757;-69
2022/03/21 04:13:03;;;;;;;;;58.25;46.00;;;;;7.42;62.28;102494.56;5113035;27;49875;-69
2022/03/21 04:15:28;;;;;;;;;63.25;52.00;;;;;7.23;62.26;102448.13;5112683;27;49956;-68
2022/03/21 04:17:59;;;;;;;;;60.25;49.50;;;;;7.74;62.76;102549.72;5112737;27;49891;-68
2022/03/21 04:20:24;;;;;;;;;62.00;48.00;;;;;7.75;63.08;102550.59;5110167;27;51419;-68
2022/03/21 04:22:49;;;;;;;;;62.25;49.00;;;;;7.79;62.98;102573.50;5112213;27;49844;-68
2022/03/21 04:25:15;;;;;;;;;66.75;54.25;;;;;7.69;62.46;102537.16;5111977;27;49691;-69
2022/03/21 04:27:40;;;;;;;;;65.00;54.25;;;;;7.81;62.67;102550.06;5112454;27;49576;-69
2022/03/21 04:30:07;;;;;;;;;69.50;53.75;;;;;7.92;63.00;102559.47;5112134;27;49804;-68
2022/03/21 04:32:33;;;;;;;;;57.50;46.00;;;;;7.75;61.98;102527.06;5112491;27;49809;-69
2022/03/21 04:34:59;;;;;;;;;63.75;51.00;;;;;7.95;62.07;102551.81;5112247;27;49884;-69
2022/03/21 04:37:25;;;;;;;;;73.25;55.50;;;;;7.97;61.73;102552.78;5111068;27;50009;-69
2022/03/21 04:39:50;;;;;;;;;62.25;51.50;;;;;7.78;62.24;102515.91;5111552;27;49881;-69
2022/03/21 04:42:16;;;;;;;;;65.75;53.00;;;;;7.77;61.96;102506.25;5111980;27;49863;-69
2022/03/21 04:44:44;;;;;;;;;70.50;53.75;;;;;7.53;62.36;102453.38;5112624;27;49774;-69
2022/03/21 04:47:09;;;;;;;;;63.00;48.75;;;;;7.69;61.90;102501.47;5112354;27;49865;-69
2022/03/21 04:49:36;;;;;;;;;61.00;48.50;;;;;8.08;61.98;102559.56;5111854;27;50946;-69
2022/03/21 04:52:01;;;;;;;;;59.25;50.75;;;;;8.11;62.08;102561.47;5111635;27;49799;-69
2022/03/21 04:54:28;;;;;;;;;59.50;46.50;;;;;8.14;62.26;102556.41;5111492;27;49674;-69
2022/03/21 04:56:54;;;;;;;;;55.75;47.25;;;;;7.88;62.09;102511.31;5111438;27;49970;-69
2022/03/21 04:59:19;;;;;;;;;64.25;49.25;;;;;8.00;61.94;102532.94;5110846;27;50669;-69
2022/03/21 05:01:44;;;;;;;;;63.00;50.75;;;;;7.83;61.86;102504.00;5111651;27;49767;-69
2022/03/21 05:04:10;;;;;;;;;59.25;50.25;;;;;8.02;62.04;102533.06;5111658;27;49753;-68
2022/03/21 05:06:35;;;;;;;;;63.00;49.25;;;;;8.24;62.39;102567.50;5110837;27;49872;-69
2022/03/21 05:09:03;;;;;;;;;64.50;50.00;;;;;8.24;62.00;102580.59;5111635;27;49841;-69
2022/03/21 05:11:29;;;;;;;;;68.00;51.00;;;;;8.28;62.35;102573.81;5111284;27;49909;-69
2022/03/21 05:13:55;;;;;;;;;61.75;49.75;;;;;8.30;62.15;102567.88;5111220;27;50021;-69
2022/03/21 05:16:21;;;;;;;;;62.00;51.50;;;;;8.25;62.01;102560.56;5111611;27;49776;-68
2022/03/21 05:18:47;;;;;;;;;64.75;50.00;;;;;8.31;62.29;102574.91;5111284;27;50848;-69
2022/03/21 05:21:13;;;;;;;;;60.25;49.50;;;;;8.02;61.63;102514.75;5111503;27;49800;-68
2022/03/21 05:31:49;;;;;;;;;64.50;50.75;;;;;7.98;61.77;102528.44;5110464;27;49866;-68
2022/03/21 05:36:58;;;;;;;;;66.00;51.50;;;;;8.33;61.79;102583.75;5111012;27;49687;-69
2022/03/21 05:39:24;;;;;;;;;63.00;50.75;;;;;8.18;62.45;102563.63;5103084;27;49802;-68
2022/03/21 05:41:53;;;;;;;;;63.50;50.75;;;;;8.18;61.60;102558.38;5110135;27;49856;-68
2022/03/21 05:44:19;;;;;;;;;63.75;51.00;;;;;8.35;62.05;102577.75;5111027;27;49711;-69
2022/03/21 05:46:45;;;;;;;;;64.75;53.75;;;;;8.40;62.39;102594.63;5110549;27;49737;-69
2022/03/21 05:49:10;;;;;;;;;63.75;53.25;;;;;8.27;62.33;102570.28;5109990;27;50012;-69
2022/03/21 05:51:37;;;;;;;;;63.75;48.75;;;;;8.36;61.78;102593.53;5105427;27;49937;-69
2022/03/21 05:54:08;;;;;;;;;64.75;48.75;;;;;8.38;61.70;102589.28;5108762;27;49813;-69
2022/03/21 05:56:34;;;;;;;;;65.75;49.75;;;;;8.42;62.23;102590.38;5110611;27;50077;-69
2022/03/21 06:00:20;;;;;;;;;52.50;42.50;;;;;8.46;62.00;102598.47;5109786;27;50526;-69
2022/03/21 06:01:50;;;;;;;;;62.00;49.25;;;;;8.26;62.01;102563.25;5104233;27;49762;-69
2022/03/21 06:04:16;;;;;;;;;61.75;49.75;;;;;8.17;62.16;102552.25;5110832;27;49776;-69
2022/03/21 06:06:43;;;;;;;;;59.75;47.25;;;;;8.36;62.78;102590.00;5110889;27;49850;-69
2022/03/21 06:09:12;;;;;;;;;62.50;47.25;;;;;8.38;62.22;102601.47;5110241;27;49863;-68
2022/03/21 06:11:37;;;;;;;;;58.50;48.00;;;;;8.35;62.36;102604.81;5108303;27;50029;-69
2022/03/21 06:14:04;;;;;;;;;61.50;46.25;;;;;8.25;62.81;102605.03;5110011;27;49767;-69
2022/03/21 06:16:30;;;;;;;;;59.75;49.50;;;;;8.23;62.63;102607.56;5104028;27;49691;-69
2022/03/21 06:18:57;;;;;;;;;61.00;49.00;;;;;8.24;63.09;102603.25;5111972;27;50778;-69
2022/03/21 06:21:23;;;;;;;;;60.25;49.75;;;;;7.79;63.31;102546.44;5116702;27;49721;-69
2022/03/21 06:23:49;;;;;;;;;66.00;52.00;;;;;8.04;62.83;102582.03;5112844;27;49802;-70
2022/03/21 06:26:14;;;;;;;;;68.00;51.00;;;;;8.24;63.59;102625.06;5112584;27;49775;-64
2022/03/21 06:28:39;;;;;;;;;66.00;52.50;;;;;8.09;62.93;102604.94;5119642;27;50232;-66
2022/03/21 06:31:05;;;;;;;;;65.00;51.25;;;;;8.29;62.84;102643.66;5112902;27;49881;-68
2022/03/21 06:33:31;;;;;;;;;56.50;45.25;;;;;8.31;63.02;102644.66;5113220;27;49720;-66
2022/03/21 06:35:59;;;;;;;;;63.50;51.50;;;;;8.32;63.75;102642.13;5113261;27;49751;-65
2022/03/21 06:38:25;;;;;;;;;65.00;52.00;;;;;8.19;62.84;102623.88;5112548;27;50885;-67
2022/03/21 06:40:51;;;;;;;;;65.75;52.25;;;;;7.97;63.93;102598.16;5112938;27;50018;-65
2022/03/21 06:43:17;;;;;;;;;65.75;52.25;;;;;8.32;63.89;102657.84;5112647;27;49884;-68
2022/03/21 06:45:43;;;;;;;;;65.50;52.00;;;;;8.10;63.66;102625.03;5113251;27;49866;-65
2022/03/21 06:48:09;;;;;;;;;69.25;53.00;;;;;8.44;63.48;102657.69;5113323;27;50526;-65
2022/03/21 06:50:35;;;;;;;;;57.75;47.00;;;;;8.35;63.26;102636.22;5113441;27;49624;-68
2022/03/21 06:53:00;;;;;;;;;64.75;49.25;;;;;8.47;62.87;102636.94;5113580;27;49935;-66
2022/03/21 06:55:26;;;;;;;;;61.25;49.25;;;;;8.75;63.08;102672.59;5113328;27;49955;-68
2022/03/21 06:57:51;;;;;;;;;71.50;53.75;;;;;8.44;62.82;102600.13;5112744;27;50352;-68
2022/03/21 07:00:17;;;;;;;;;67.50;52.75;;;;;8.88;62.49;102672.50;5112558;27;49731;-69
2022/03/21 07:02:43;;;;;;;;;67.50;51.50;;;;;8.81;62.47;102647.69;5113005;27;50082;-66
2022/03/21 07:05:09;;;;;;;;;61.50;50.00;;;;;8.98;61.82;102658.22;5112454;27;49741;-68
2022/03/21 07:07:35;;;;;;;;;61.00;49.75;;;;;8.93;62.19;102642.22;5112207;27;51331;-67
2022/03/21 07:10:01;;;;;;;;;67.50;51.00;;;;;8.95;61.81;102645.84;5113042;27;49976;-66
2022/03/21 07:12:27;;;;;;;;;63.75;50.00;;;;;9.17;61.86;102675.09;5112594;27;49867;-68
2022/03/21 07:14:52;;;;;;;;;68.25;55.25;;;;;9.19;61.63;102672.53;5110918;27;49664;-66
2022/03/21 07:17:23;;;;;;;;;59.50;43.75;;;;;9.31;61.26;102674.94;5121886;27;50239;-68
2022/03/21 07:19:49;;;;;;;;;70.25;54.50;;;;;9.24;61.02;102647.47;5104659;27;50108;-63
2022/03/21 07:22:14;;;;;;;;;68.00;52.75;;;;;9.51;61.20;102679.59;5110876;27;50629;-64
2022/03/21 07:24:40;;;;;;;;;69.50;54.25;;;;;9.61;60.46;102676.66;5111702;27;49951;-65
2022/03/21 07:27:06;;;;;;;;;68.75;52.75;;;;;9.70;61.08;102669.28;5112516;27;50623;-71
2022/03/21 07:29:32;;;;;;;;;68.00;54.25;;;;;9.57;60.56;102627.50;5112621;27;49776;-63
2022/03/21 07:31:57;;;;;;;;;63.00;51.50;;;;;9.95;60.88;102675.88;5112858;27;49808;-66
2022/03/21 07:34:23;;;;;;;;;65.25;52.50;;;;;9.58;60.11;102602.19;5113285;27;49962;-66
2022/03/21 07:36:49;;;;;;;;;61.00;49.75;;;;;10.00;59.22;102663.91;5112552;27;50600;-66
2022/03/21 07:39:14;;;;;;;;;36.50;34.50;;;;;10.04;59.18;102643.16;5112790;27;49631;-66
2022/03/21 07:41:39;;;;;;;;;66.00;51.25;;;;;10.27;58.47;102665.38;5112519;27;49778;-67
2022/03/21 07:44:05;;;;;;;;;69.67;56.33;;;;;10.47;59.34;102673.41;5112936;27;49850;-68
2022/03/21 07:49:14;;;;;;;;;67.00;51.33;;;;;10.69;58.98;102672.75;5112727;27;49838;-69
2022/03/21 07:51:43;;;;;;;;;64.25;53.00;;;;;10.55;57.82;102630.06;5111214;27;50089;-69
2022/03/21 07:54:09;;;;;;;;;72.75;55.75;;;;;10.75;58.19;102658.22;5112698;27;49960;-69
2022/03/21 07:56:34;;;;;;;;;70.00;55.25;;;;;10.99;57.90;102678.66;5112160;27;50659;-65
2022/03/21 07:59:01;;;;;;;;;71.00;54.75;;;;;11.06;57.29;102686.91;5110983;27;50412;-70
2022/03/21 08:01:29;;;;;;;;;65.00;51.00;;;;;10.94;57.45;102649.53;5112459;27;49671;-71
2022/03/21 08:03:55;;;;;;;;;67.25;53.50;;;;;11.18;56.99;102670.84;5112620;27;49940;-65
2022/03/21 08:06:20;;;;;;;;;69.25;53.75;;;;;11.15;57.25;102657.56;5112453;27;50369;-66
2022/03/21 08:08:48;;;;;;;;;67.75;54.00;;;;;11.39;56.86;102690.31;5112421;27;49851;-66
2022/03/21 08:11:13;;;;;;;;;68.25;54.75;;;;;11.51;56.75;102679.47;5112393;27;49968;-69
2022/03/21 08:13:39;;;;;;;;;64.75;52.00;;;;;11.59;56.35;102677.19;5112546;27;49768;-68
2022/03/21 08:16:07;;;;;;;;;70.50;54.25;;;;;11.76;56.57;102686.75;5111950;27;50809;-66
2022/03/21 08:18:32;;;;;;;;;67.75;54.75;;;;;11.35;56.13;102580.53;5112103;27;49549;-67
2022/03/21 08:20:57;;;;;;;;;65.25;51.25;;;;;12.10;55.61;102683.97;5111056;27;50195;-67
2022/03/21 08:23:23;;;;;;;;;67.75;52.00;;;;;12.26;55.30;102685.59;5112563;27;49861;-69
2022/03/21 08:25:48;;;;;;;;;66.25;52.75;;;;;12.39;54.83;102677.38;5111971;27;50245;-66
2022/03/21 08:28:14;;;;;;;;;62.50;50.25;;;;;12.36;54.79;102644.75;5111860;27;49576;-66
2022/03/21 08:30:41;;;;;;;;;68.50;53.50;;;;;12.62;54.44;102681.00;5112090;27;49713;-69
2022/03/21 08:33:09;;;;;;;;;66.00;54.25;;;;;12.71;54.59;102677.84;5112086;27;49734;-66
2022/03/21 08:35:36;;;;;;;;;66.00;52.25;;;;;12.83;53.83;102679.25;5111706;27;50744;-70
2022/03/21 08:38:03;;;;;;;;;71.25;55.00;;;;;12.79;53.80;102660.63;5111952;27;49653;-70
2022/03/21 08:40:28;;;;;;;;;71.25;53.25;;;;;13.05;53.37;102675.81;5110889;27;49770;-68
2022/03/21 08:42:55;;;;;;;;;65.25;51.25;;;;;13.09;53.62;102675.06;5112078;27;49971;-69
2022/03/21 08:45:21;;;;;;;;;68.00;53.00;;;;;12.85;53.41;102646.00;5111627;27;49967;-66
2022/03/21 08:47:49;;;;;;;;;64.75;50.25;;;;;12.85;53.56;102645.09;5111741;27;49744;-68
2022/03/21 08:50:14;;;;;;;;;60.25;48.25;;;;;13.02;53.24;102670.38;5105125;27;49906;-69
2022/03/21 08:52:40;;;;;;;;;58.50;45.25;;;;;12.76;53.26;102598.16;5111805;27;49732;-70
2022/03/21 08:55:06;;;;;;;;;48.00;41.25;;;;;13.46;53.10;102676.59;5111561;27;49696;-70
2022/03/21 08:57:32;;;;;;;;;57.00;45.00;;;;;13.65;52.29;102676.47;5111653;27;49789;-64
2022/03/21 08:59:57;;;;;;;;;56.50;46.00;;;;;13.74;51.78;102674.19;5111565;27;49728;-70
2022/03/21 09:02:23;;;;;;;;;51.00;42.75;;;;;13.83;52.09;102676.28;5112035;27;50078;-65
2022/03/21 09:04:49;;;;;;;;;54.25;45.75;;;;;13.87;51.81;102657.06;5109856;27;52160;-64
2022/03/21 09:07:15;;;;;;;;;53.25;45.00;;;;;14.07;51.46;102673.66;5111534;27;49780;-65
2022/03/21 09:09:41;;;;;;;;;50.75;42.75;;;;;14.13;50.44;102667.69;5111517;27;50296;-70
2022/03/21 09:12:07;;;;;;;;;51.50;42.00;;;;;14.19;51.00;102666.19;5111433;27;49753;-70
2022/03/21 09:14:33;;;;;;;;;51.50;43.75;;;;;13.82;50.40;102589.13;5111239;27;49663;-65
2022/03/21 09:17:00;;;;;;;;;53.50;42.25;;;;;14.01;50.43;102621.53;5111358;27;49995;-66
2022/03/21 09:19:27;;;;;;;;;46.25;39.00;;;;;14.27;50.41;102642.66;5111542;27;49933;-70
2022/03/21 09:21:54;;;;;;;;;57.75;45.25;;;;;14.47;50.03;102661.91;5111720;27;49869;-68
2022/03/21 09:24:19;;;;;;;;;52.00;42.75;;;;;14.46;49.76;102655.72;5111005;27;50645;-67
2022/03/21 09:26:44;;;;;;;;;53.75;44.25;;;;;14.42;49.71;102653.78;5110926;27;49827;-69
2022/03/21 09:29:10;;;;;;;;;41.25;34.75;;;;;14.44;49.20;102656.47;5111244;27;50298;-66
2022/03/21 09:31:36;;;;;;;;;37.00;33.75;;;;;14.29;49.74;102631.34;5111422;27;49922;-75
2022/03/21 09:34:02;;;;;;;;;49.00;39.75;;;;;14.43;49.07;102662.63;5111230;27;49929;-65
2022/03/21 09:36:27;;;;;;;;;44.25;36.50;;;;;14.40;49.34;102659.88;5111869;27;49855;-71
2022/03/21 09:38:53;;;;;;;;;36.25;32.75;;;;;14.35;49.13;102649.13;5110198;27;50343;-71
2022/03/21 09:41:24;;;;;;;;;32.75;30.00;;;;;14.36;49.43;102665.88;5111211;27;49876;-70
2022/03/21 09:43:51;;;;;;;;;32.50;28.25;;;;;14.32;49.41;102651.66;5110690;27;50500;-70
2022/03/21 09:46:17;;;;;;;;;41.50;32.50;;;;;14.30;49.76;102659.53;5110965;27;49713;-68
2022/03/21 09:48:50;;;;;;;;;32.00;31.00;;;;;14.26;49.01;102659.38;5111144;27;49791;-66
2022/03/21 09:51:42;;;;;;;;;35.00;29.50;;;;;14.25;49.70;102657.56;5111235;27;49933;-67
2022/03/21 09:54:09;;;;;;;;;34.75;30.75;;;;;14.25;49.17;102653.19;5110562;27;51020;-67
2022/03/21 09:56:35;;;;;;;;;33.00;31.00;;;;;14.28;49.28;102653.31;5114356;27;49699;-67
2022/03/21 09:59:00;;;;;;;;;37.25;32.50;;;;;14.13;49.95;102617.53;5114419;27;49799;-64
2022/03/21 10:01:31;;;;;;;;;37.50;34.75;;;;;14.33;49.39;102648.19;5113254;27;49859;-65
2022/03/21 10:03:58;;;;;;;;;37.50;34.75;;;;;14.31;49.37;102642.84;5114068;27;49886;-69
2022/03/21 10:06:43;;;;;;;;;33.50;28.25;;;;;14.33;49.12;102641.16;5114174;27;49824;-66
2022/03/21 10:09:19;;;;;;;;;34.75;29.00;;;;;13.98;48.94;102579.13;5107702;27;49686;-69
2022/03/21 10:11:54;;;;;;;;;29.25;27.50;;;;;14.38;48.93;102636.03;5114267;27;49723;-67
2022/03/21 10:14:23;;;;;;;;;25.00;22.50;;;;;14.45;48.67;102646.00;5114078;27;49832;-66
2022/03/21 10:16:54;;;;;;;;;34.75;26.75;;;;;14.41;48.80;102635.25;5114123;27;50118;-65
2022/03/21 10:19:20;;;;;;;;;32.75;29.50;;;;;14.51;48.53;102651.50;5114188;27;49851;-65
2022/03/21 10:22:06;;;;;;;;;26.75;26.50;;;;;14.49;49.06;102647.03;5114193;27;49570;-68
2022/03/21 10:24:37;;;;;;;;;31.25;27.75;;;;;14.56;49.01;102647.25;5113772;27;49728;-68
2022/03/21 10:27:03;;;;;;;;;25.00;21.75;;;;;14.63;48.61;102639.56;5113907;27;49721;-68
2022/03/21 10:29:29;;;;;;;;;31.75;29.50;;;;;14.69;47.87;102632.75;5113953;27;49958;-66
2022/03/21 10:31:54;;;;;;;;;29.25;24.25;;;;;14.72;48.11;102638.13;5114245;27;49785;-66
2022/03/21 10:34:27;;;;;;;;;25.25;24.50;;;;;14.62;48.24;102599.00;5113785;27;49995;-69
2022/03/21 10:37:08;;;;;;;;;23.00;22.00;;;;;14.82;47.79;102634.94;5113888;27;49988;-68
2022/03/21 10:39:35;;;;;;;;;28.25;27.50;;;;;14.84;48.02;102627.94;5113661;27;50260;-69
2022/03/21 10:42:03;;;;;;;;;29.00;29.00;;;;;14.76;47.94;102605.63;5113607;27;50037;-65
2022/03/21 10:44:29;;;;;;;;;26.75;25.00;;;;;14.91;47.61;102622.88;5113602;27;50502;-65
2022/03/21 10:46:56;;;;;;;;;24.00;21.75;;;;;14.98;47.30;102625.75;5113680;27;49667;-65
2022/03/21 10:49:32;;;;;;;;;33.50;31.75;;;;;14.80;47.17;102598.72;5113826;27;49797;-66
2022/03/21 10:51:57;;;;;;;;;32.50;29.00;;;;;15.01;47.53;102627.59;5113634;27;49766;-68
2022/03/21 10:54:48;;;;;;;;;31.25;25.00;;;;;15.05;47.45;102621.53;5113426;27;49827;-68
2022/03/21 10:57:37;;;;;;;;;19.25;18.50;;;;;15.13;47.04;102625.34;5113254;27;49858;-67
2022/03/21 11:00:12;;;;;;;;;25.50;21.50;;;;;15.21;47.01;102628.22;5113282;27;49784;-67
2022/03/21 11:02:49;;;;;;;;;24.50;22.75;;;;;15.09;46.81;102600.56;5113658;27;49743;-68
2022/03/21 11:05:16;;;;;;;;;23.50;19.75;;;;;15.31;46.59;102619.72;5107139;27;49760;-69
2022/03/21 11:07:42;;;;;;;;;25.25;23.75;;;;;15.29;46.37;102602.91;5113304;27;49811;-70
2022/03/21 11:10:08;;;;;;;;;24.25;20.00;;;;;15.21;46.61;102586.81;5113484;27;49989;-66
2022/03/21 11:12:34;;;;;;;;;25.00;21.50;;;;;15.39;46.03;102612.94;5113231;27;49797;-62
2022/03/21 11:15:01;;;;;;;;;24.50;21.25;;;;;15.45;46.32;102605.19;5112995;27;50767;-63
2022/03/21 11:17:26;;;;;;;;;14.00;13.25;;;;;15.41;47.10;102584.75;5113146;27;49731;-68
2022/03/21 11:19:52;;;;;;;;;21.75;18.75;;;;;15.34;46.11;102572.19;5113209;27;49916;-75
2022/03/21 11:22:18;;;;;;;;;19.00;18.00;;;;;15.58;45.66;102604.69;5111996;27;49683;-69
2022/03/21 11:24:44;;;;;;;;;21.50;19.75;;;;;15.63;46.22;102596.91;5112919;27;49745;-68
2022/03/21 11:27:09;;;;;;;;;19.50;17.00;;;;;15.69;46.04;102595.34;5112989;27;49679;-71
2022/03/21 11:29:52;;;;;;;;;20.00;15.75;;;;;15.73;45.70;102593.69;5112481;27;49909;-65
2022/03/21 11:32:48;;;;;;;;;16.25;16.25;;;;;15.80;44.76;102589.44;5113458;27;50105;-65